createdAt,value
2019-01-13T00:00:46.182Z,79.30
2019-01-13T00:02:49.098Z,79.30
2019-01-13T00:04:52.771Z,79.40
2019-01-13T00:06:55.754Z,79.40
2019-01-13T00:08:58.648Z,79.40
2019-01-13T00:11:01.535Z,79.50
2019-01-13T00:13:05.168Z,79.50
2019-01-13T00:15:08.031Z,79.50
2019-01-13T00:17:12.006Z,79.60
2019-01-13T00:19:14.998Z,79.50
2019-01-13T00:21:17.878Z,79.50
2019-01-13T00:23:21.554Z,79.60
2019-01-13T00:25:24.430Z,79.60
2019-01-13T00:27:27.325Z,79.60
2019-01-13T00:29:30.218Z,79.60
2019-01-13T00:31:33.865Z,79.60
2019-01-13T00:33:37.543Z,79.60
2019-01-13T00:35:41.207Z,79.70
2019-01-13T00:37:44.082Z,79.60
2019-01-13T00:39:48.982Z,79.70
2019-01-13T00:41:51.896Z,79.60
2019-01-13T00:43:54.766Z,79.60
2019-01-13T00:45:57.659Z,79.60
2019-01-13T00:48:00.528Z,79.70
2019-01-13T00:50:03.408Z,79.70
2019-01-13T00:52:06.409Z,79.70
2019-01-13T00:54:09.278Z,79.70
2019-01-13T00:56:12.158Z,79.70
2019-01-13T00:58:15.081Z,79.70
2019-01-13T01:00:18.710Z,79.80
2019-01-13T01:02:22.515Z,79.70
2019-01-13T01:04:25.638Z,79.70
2019-01-13T01:06:28.610Z,79.70
2019-01-13T01:08:31.686Z,79.70
2019-01-13T01:10:34.680Z,79.60
2019-01-13T01:12:37.555Z,79.10
2019-01-13T01:14:41.691Z,79.30
2019-01-13T01:16:45.371Z,79.60
2019-01-13T01:18:48.297Z,79.60
2019-01-13T01:20:51.250Z,79.70
2019-01-13T01:22:54.901Z,79.10
2019-01-13T01:24:57.767Z,79.70
2019-01-13T01:27:00.795Z,79.80
2019-01-13T01:29:03.706Z,79.80
2019-01-13T01:31:07.492Z,80.10
2019-01-13T01:33:10.814Z,79.90
2019-01-13T01:35:14.486Z,80.10
2019-01-13T01:37:18.864Z,80.10
2019-01-13T01:39:21.770Z,79.90
2019-01-13T01:41:25.172Z,80.00
2019-01-13T01:43:28.965Z,80.00
2019-01-13T01:45:31.882Z,80.00
2019-01-13T01:47:35.503Z,80.00
2019-01-13T01:49:38.836Z,80.00
2019-01-13T01:51:41.919Z,79.90
2019-01-13T01:53:44.794Z,79.90
2019-01-13T01:55:48.544Z,80.60
2019-01-13T01:57:52.157Z,79.90
2019-01-13T01:59:55.074Z,79.90
2019-01-13T02:01:57.973Z,79.80
2019-01-13T02:04:00.996Z,79.70
2019-01-13T02:06:04.618Z,79.80
2019-01-13T02:08:07.626Z,79.60
2019-01-13T02:10:10.471Z,79.60
2019-01-13T02:12:13.743Z,79.50
2019-01-13T02:14:17.028Z,79.40
2019-01-13T02:16:20.736Z,79.30
2019-01-13T02:18:24.397Z,79.30
2019-01-13T02:20:27.358Z,79.20
2019-01-13T02:22:30.266Z,79.20
2019-01-13T02:24:33.186Z,79.10
2019-01-13T02:26:36.116Z,79.00
2019-01-13T02:28:40.545Z,79.00
2019-01-13T02:30:49.106Z,78.90
2019-01-13T02:32:47.422Z,79.00
2019-01-13T02:34:50.322Z,78.90
2019-01-13T02:36:53.255Z,78.90
2019-01-13T02:38:56.186Z,78.80
2019-01-13T02:40:59.109Z,78.80
2019-01-13T02:43:02.583Z,78.80
2019-01-13T02:45:14.950Z,78.80
2019-01-13T02:47:17.966Z,78.80
2019-01-13T02:49:21.662Z,78.80
2019-01-13T02:51:25.330Z,78.80
2019-01-13T02:53:28.230Z,78.70
2019-01-13T02:55:31.552Z,78.70
2019-01-13T02:57:34.450Z,78.70
2019-01-13T02:59:37.405Z,78.70
2019-01-13T03:01:41.204Z,78.60
2019-01-13T03:03:44.866Z,78.60
2019-01-13T03:05:47.799Z,78.60
2019-01-13T03:07:50.744Z,78.50
2019-01-13T03:09:53.647Z,78.60
2019-01-13T03:11:56.566Z,78.60
2019-01-13T03:13:59.613Z,78.50
2019-01-13T03:16:03.285Z,78.50
2019-01-13T03:18:06.218Z,78.50
2019-01-13T03:20:09.284Z,78.40
2019-01-13T03:22:12.221Z,78.40
2019-01-13T03:24:15.161Z,78.30
2019-01-13T03:26:18.234Z,78.30
2019-01-13T03:28:21.161Z,78.30
2019-01-13T03:30:24.086Z,78.40
2019-01-13T03:32:27.902Z,78.40
2019-01-13T03:34:30.838Z,78.30
2019-01-13T03:36:33.809Z,78.30
2019-01-13T03:38:36.855Z,78.30
2019-01-13T03:40:39.766Z,78.30
2019-01-13T03:42:42.706Z,78.40
2019-01-13T03:44:46.512Z,78.40
2019-01-13T03:46:50.193Z,78.30
2019-01-13T03:48:53.918Z,78.30
2019-01-13T03:50:56.897Z,78.20
2019-01-13T03:53:00.552Z,77.80
2019-01-13T03:55:03.580Z,78.30
2019-01-13T03:57:06.521Z,78.40
2019-01-13T03:59:09.428Z,78.30
2019-01-13T04:01:18.491Z,78.40
2019-01-13T04:03:16.071Z,78.30
2019-01-13T04:05:18.981Z,78.30
2019-01-13T04:07:22.667Z,78.30
2019-01-13T04:09:25.645Z,78.30
2019-01-13T04:11:28.566Z,78.20
2019-01-13T04:13:32.238Z,78.20
2019-01-13T04:15:36.044Z,78.20
2019-01-13T04:17:39.056Z,78.10
2019-01-13T04:19:42.747Z,78.00
2019-01-13T04:21:46.562Z,78.10
2019-01-13T04:23:49.501Z,78.00
2019-01-13T04:25:52.402Z,78.00
2019-01-13T04:27:56.122Z,78.80
2019-01-13T04:30:00.636Z,78.00
2019-01-13T04:32:04.301Z,78.00
2019-01-13T04:34:07.248Z,78.00
2019-01-13T04:36:10.163Z,78.00
2019-01-13T04:38:13.081Z,78.00
2019-01-13T04:40:17.209Z,78.00
2019-01-13T04:42:20.113Z,77.90
2019-01-13T04:44:23.031Z,77.90
2019-01-13T04:46:26.757Z,78.50
2019-01-13T04:48:30.425Z,78.00
2019-01-13T04:50:33.335Z,78.00
2019-01-13T04:52:36.470Z,77.90
2019-01-13T04:54:39.372Z,77.90
2019-01-13T04:56:42.333Z,77.90
2019-01-13T04:58:45.387Z,77.90
2019-01-13T05:00:48.293Z,77.90
2019-01-13T05:02:51.216Z,77.90
2019-01-13T05:04:55.036Z,78.00
2019-01-13T05:06:58.705Z,77.90
2019-01-13T05:09:01.718Z,77.90
2019-01-13T05:11:05.761Z,77.80
2019-01-13T05:13:08.669Z,77.80
2019-01-13T05:15:12.478Z,78.60
2019-01-13T05:17:15.415Z,77.80
2019-01-13T05:19:18.321Z,77.80
2019-01-13T05:21:21.229Z,77.80
2019-01-13T05:23:24.181Z,77.80
2019-01-13T05:25:27.096Z,77.80
2019-01-13T05:27:30.100Z,77.80
2019-01-13T05:29:34.006Z,77.90
2019-01-13T05:31:41.923Z,77.90
2019-01-13T05:33:40.725Z,77.80
2019-01-13T05:35:43.798Z,77.80
2019-01-13T05:37:46.711Z,77.80
2019-01-13T05:39:49.606Z,77.80
2019-01-13T05:41:52.566Z,77.80
2019-01-13T05:43:55.479Z,77.90
2019-01-13T05:45:58.408Z,77.90
2019-01-13T05:48:02.491Z,77.90
2019-01-13T05:50:06.220Z,77.90
2019-01-13T05:52:09.123Z,77.80
2019-01-13T05:54:12.601Z,77.80
2019-01-13T05:56:15.511Z,77.80
2019-01-13T05:58:18.409Z,77.80
2019-01-13T06:00:21.429Z,77.90
2019-01-13T06:02:24.346Z,77.90
2019-01-13T06:04:27.253Z,77.80
2019-01-13T06:06:30.210Z,77.80
2019-01-13T06:08:33.145Z,77.70
2019-01-13T06:10:36.846Z,77.90
2019-01-13T06:12:40.565Z,77.80
2019-01-13T06:14:43.474Z,77.80
2019-01-13T06:16:46.381Z,77.80
2019-01-13T06:18:50.335Z,78.10
2019-01-13T06:20:53.256Z,77.80
2019-01-13T06:22:56.276Z,77.80
2019-01-13T06:24:59.981Z,77.90
2019-01-13T06:27:03.658Z,77.90
2019-01-13T06:29:06.564Z,77.80
2019-01-13T06:31:10.314Z,77.90
2019-01-13T06:33:13.269Z,77.90
2019-01-13T06:35:16.174Z,77.80
2019-01-13T06:37:19.133Z,77.90
2019-01-13T06:39:22.045Z,77.90
2019-01-13T06:41:24.967Z,77.90
2019-01-13T06:43:28.771Z,78.00
2019-01-13T06:45:32.441Z,78.00
2019-01-13T06:47:35.452Z,77.90
2019-01-13T06:49:39.356Z,78.00
2019-01-13T06:51:43.026Z,78.00
2019-01-13T06:53:45.941Z,78.00
2019-01-13T06:55:48.896Z,78.00
2019-01-13T06:57:51.902Z,78.00
2019-01-13T06:59:55.578Z,78.10
2019-01-13T07:02:03.388Z,78.10
2019-01-13T07:04:02.975Z,78.10
2019-01-13T07:06:06.668Z,78.20
2019-01-13T07:08:11.142Z,78.10
2019-01-13T07:10:14.893Z,78.10
2019-01-13T07:12:17.817Z,78.10
2019-01-13T07:14:21.136Z,78.80
2019-01-13T07:16:24.046Z,78.10
2019-01-13T07:18:27.735Z,78.30
2019-01-13T07:20:30.968Z,78.10
2019-01-13T07:22:33.901Z,78.20
2019-01-13T07:24:36.930Z,78.30
2019-01-13T07:26:41.077Z,78.30
2019-01-13T07:28:44.003Z,78.30
2019-01-13T07:30:47.681Z,79.00
2019-01-13T07:32:50.650Z,78.30
2019-01-13T07:34:53.678Z,78.30
2019-01-13T07:36:57.348Z,78.40
2019-01-13T07:39:00.307Z,78.30
2019-01-13T07:41:03.229Z,78.30
2019-01-13T07:43:06.239Z,78.30
2019-01-13T07:45:09.958Z,78.40
2019-01-13T07:47:12.885Z,78.30
2019-01-13T07:49:15.785Z,78.30
2019-01-13T07:51:18.713Z,78.40
2019-01-13T07:53:22.454Z,78.50
2019-01-13T07:55:25.463Z,78.40
2019-01-13T07:57:29.266Z,78.60
2019-01-13T07:59:32.942Z,78.70
2019-01-13T08:01:35.873Z,78.60
2019-01-13T08:03:38.934Z,78.70
2019-01-13T08:05:42.609Z,78.90
2019-01-13T08:07:45.525Z,78.80
2019-01-13T08:09:48.473Z,78.80
2019-01-13T08:11:51.377Z,78.90
2019-01-13T08:13:54.293Z,78.90
2019-01-13T08:15:57.226Z,79.00
2019-01-13T08:18:00.694Z,79.00
2019-01-13T08:20:03.618Z,79.00
2019-01-13T08:22:07.330Z,79.20
2019-01-13T08:24:10.237Z,79.10
2019-01-13T08:26:13.182Z,79.10
2019-01-13T08:28:16.981Z,79.30
2019-01-13T08:30:20.668Z,79.30
2019-01-13T08:32:25.049Z,80.00
2019-01-13T08:34:27.486Z,79.50
2019-01-13T08:36:31.141Z,79.40
2019-01-13T08:38:34.101Z,79.40
2019-01-13T08:40:37.339Z,79.50
2019-01-13T08:42:41.037Z,79.60
2019-01-13T08:44:44.737Z,79.70
2019-01-13T08:46:48.548Z,79.70
2019-01-13T08:48:51.470Z,79.70
2019-01-13T08:50:54.384Z,79.60
2019-01-13T08:52:58.598Z,79.70
2019-01-13T08:55:02.279Z,79.90
2019-01-13T08:57:05.209Z,79.80
2019-01-13T08:59:08.253Z,79.80
2019-01-13T09:01:11.171Z,80.00
2019-01-13T09:03:14.845Z,80.10
2019-01-13T09:05:18.664Z,80.10
2019-01-13T09:07:22.340Z,80.20
2019-01-13T09:09:25.352Z,80.10
2019-01-13T09:11:28.637Z,80.20
2019-01-13T09:13:32.307Z,80.30
2019-01-13T09:15:35.319Z,80.30
2019-01-13T09:17:39.406Z,80.40
2019-01-13T09:19:42.412Z,80.30
2019-01-13T09:21:46.109Z,80.70
2019-01-13T09:23:49.096Z,80.30
2019-01-13T09:25:52.764Z,80.50
2019-01-13T09:27:55.782Z,80.40
2019-01-13T09:29:59.495Z,80.50
2019-01-13T09:32:02.418Z,80.50
2019-01-13T09:34:05.321Z,80.50
2019-01-13T09:36:09.123Z,81.30
2019-01-13T09:38:12.128Z,80.60
2019-01-13T09:40:16.693Z,80.70
2019-01-13T09:42:19.633Z,80.60
2019-01-13T09:44:22.545Z,80.70
2019-01-13T09:46:25.462Z,80.70
2019-01-13T09:48:29.922Z,80.90
2019-01-13T09:50:32.850Z,80.80
2019-01-13T09:52:35.773Z,80.80
2019-01-13T09:54:39.492Z,81.00
2019-01-13T09:56:42.398Z,80.90
2019-01-13T09:58:45.739Z,80.90
2019-01-13T10:00:49.498Z,81.00
2019-01-13T10:02:52.397Z,81.00
2019-01-13T10:04:55.298Z,81.10
2019-01-13T10:06:58.886Z,81.10
2019-01-13T10:09:01.892Z,81.20
2019-01-13T10:11:05.556Z,81.20
2019-01-13T10:13:08.706Z,81.20
2019-01-13T10:15:13.927Z,81.20
2019-01-13T10:17:16.057Z,81.20
2019-01-13T10:19:19.883Z,82.10
2019-01-13T10:21:23.552Z,81.30
2019-01-13T10:23:26.476Z,81.30
2019-01-13T10:25:29.547Z,80.80
2019-01-13T10:27:32.459Z,81.40
2019-01-13T10:29:35.398Z,81.40
2019-01-13T10:31:39.209Z,81.50
2019-01-13T10:33:42.899Z,81.50
2019-01-13T10:35:46.575Z,81.60
2019-01-13T10:37:49.530Z,81.40
2019-01-13T10:39:52.440Z,81.40
2019-01-13T10:41:55.457Z,81.40
2019-01-13T10:43:59.166Z,81.40
2019-01-13T10:46:02.587Z,81.40
2019-01-13T10:48:05.501Z,81.60
2019-01-13T10:50:12.385Z,81.60
2019-01-13T10:52:16.721Z,81.60
2019-01-13T10:54:20.395Z,81.60
2019-01-13T10:56:23.521Z,81.50
2019-01-13T10:58:26.431Z,81.60
2019-01-13T11:00:29.341Z,81.60
2019-01-13T11:02:32.326Z,81.60
2019-01-13T11:04:35.257Z,81.60
2019-01-13T11:06:38.161Z,81.60
2019-01-13T11:08:41.204Z,81.60
2019-01-13T11:10:44.116Z,81.60
2019-01-13T11:12:47.033Z,81.60
2019-01-13T11:14:49.969Z,81.60
2019-01-13T11:16:52.868Z,81.60
2019-01-13T11:18:57.406Z,81.60
2019-01-13T11:20:59.712Z,81.80
2019-01-13T11:23:03.382Z,81.70
2019-01-13T11:25:06.395Z,81.70
2019-01-13T11:27:10.198Z,81.70
2019-01-13T11:29:13.161Z,81.70
2019-01-13T11:31:16.944Z,81.90
2019-01-13T11:33:19.993Z,81.80
2019-01-13T11:35:22.982Z,81.90
2019-01-13T11:37:25.895Z,81.90
2019-01-13T11:39:28.825Z,81.90
2019-01-13T11:41:32.498Z,82.10
2019-01-13T11:43:35.496Z,81.90
2019-01-13T11:45:39.401Z,82.10
2019-01-13T11:47:43.077Z,82.10
2019-01-13T11:49:46.003Z,82.10
2019-01-13T11:51:49.101Z,82.10
2019-01-13T11:53:52.027Z,82.00
2019-01-13T11:55:54.956Z,82.00
2019-01-13T11:57:58.016Z,82.10
2019-01-13T12:00:02.298Z,82.80
2019-01-13T12:02:05.234Z,82.00
2019-01-13T12:04:08.668Z,82.00
2019-01-13T12:06:11.561Z,82.20
2019-01-13T12:08:14.490Z,82.20
2019-01-13T12:10:18.414Z,82.30
2019-01-13T12:12:21.325Z,82.30
2019-01-13T12:14:24.361Z,82.40
2019-01-13T12:16:29.597Z,82.50
2019-01-13T12:18:32.509Z,82.60
2019-01-13T12:20:35.441Z,82.60
2019-01-13T12:22:38.442Z,82.70
2019-01-13T12:24:41.349Z,82.80
2019-01-13T12:26:44.293Z,82.80
2019-01-13T12:28:48.004Z,82.90
2019-01-13T12:30:50.913Z,82.90
2019-01-13T12:32:53.849Z,83.00
2019-01-13T12:34:56.801Z,83.00
2019-01-13T12:36:59.726Z,83.10
2019-01-13T12:39:02.663Z,83.90
2019-01-13T12:41:05.622Z,83.20
2019-01-13T12:43:08.539Z,84.00
2019-01-13T12:45:11.558Z,83.30
2019-01-13T12:47:14.737Z,83.40
2019-01-13T12:49:17.654Z,83.40
2019-01-13T12:51:20.696Z,83.40
2019-01-13T12:53:24.497Z,83.50
2019-01-13T12:55:28.185Z,83.60
2019-01-13T12:57:31.102Z,83.50
2019-01-13T12:59:34.182Z,83.60
2019-01-13T13:01:37.076Z,83.60
2019-01-13T13:03:39.995Z,83.60
2019-01-13T13:05:43.112Z,83.60
2019-01-13T13:07:46.094Z,83.70
2019-01-13T13:09:49.775Z,83.40
2019-01-13T13:11:52.711Z,83.40
2019-01-13T13:13:55.619Z,83.70
2019-01-13T13:15:58.744Z,84.00
2019-01-13T13:18:02.835Z,84.10
2019-01-13T13:20:06.533Z,84.00
2019-01-13T13:22:09.537Z,84.00
2019-01-13T13:24:13.343Z,83.50
2019-01-13T13:26:17.009Z,83.80
2019-01-13T13:28:20.024Z,83.10
2019-01-13T13:30:23.988Z,82.60
2019-01-13T13:32:26.866Z,82.60
2019-01-13T13:34:29.767Z,82.50
2019-01-13T13:36:32.710Z,82.30
2019-01-13T13:38:35.654Z,82.30
2019-01-13T13:40:39.354Z,82.10
2019-01-13T13:42:43.180Z,82.00
2019-01-13T13:44:46.077Z,82.00
2019-01-13T13:46:48.978Z,82.00
2019-01-13T13:48:52.971Z,82.00
2019-01-13T13:50:54.833Z,82.00
2019-01-13T13:52:57.738Z,82.00
2019-01-13T13:55:01.070Z,81.90
2019-01-13T13:57:03.979Z,81.90
2019-01-13T13:59:06.911Z,81.90
2019-01-13T14:01:10.827Z,82.00
2019-01-13T14:03:13.793Z,81.90
2019-01-13T14:05:17.505Z,81.90
2019-01-13T14:07:21.234Z,82.00
2019-01-13T14:09:24.142Z,81.80
2019-01-13T14:11:27.055Z,81.80
2019-01-13T14:13:30.155Z,81.80
2019-01-13T14:15:33.841Z,81.80
2019-01-13T14:17:36.762Z,81.80
2019-01-13T14:19:39.923Z,81.70
2019-01-13T14:21:43.618Z,81.90
2019-01-13T14:23:47.410Z,81.70
2019-01-13T14:25:51.227Z,81.80
2019-01-13T14:27:54.901Z,81.70
2019-01-13T14:29:57.910Z,81.60
2019-01-13T14:32:01.626Z,81.70
2019-01-13T14:34:04.541Z,81.50
2019-01-13T14:36:07.458Z,81.60
2019-01-13T14:38:12.169Z,81.50
2019-01-13T14:40:18.047Z,81.60
2019-01-13T14:42:21.709Z,81.60
2019-01-13T14:44:25.596Z,81.50
2019-01-13T14:46:28.494Z,81.60
2019-01-13T14:48:32.234Z,81.60
2019-01-13T14:50:36.035Z,81.60
2019-01-13T14:52:39.709Z,81.60
2019-01-13T14:54:42.647Z,81.50
2019-01-13T14:56:45.603Z,81.50
2019-01-13T14:58:49.401Z,81.60
2019-01-13T15:00:53.082Z,81.50
2019-01-13T15:02:56.014Z,81.50
2019-01-13T15:04:58.942Z,81.50
2019-01-13T15:07:01.994Z,81.50
2019-01-13T15:09:05.671Z,81.50
2019-01-13T15:11:08.590Z,81.50
2019-01-13T15:13:11.511Z,81.40
2019-01-13T15:15:15.549Z,81.50
2019-01-13T15:17:18.454Z,81.40
2019-01-13T15:19:21.370Z,81.40
2019-01-13T15:21:25.394Z,81.70
2019-01-13T15:23:29.091Z,81.30
2019-01-13T15:25:33.039Z,81.30
2019-01-13T15:27:36.099Z,81.30
2019-01-13T15:29:39.125Z,81.40
2019-01-13T15:31:42.147Z,81.40
2019-01-13T15:33:45.843Z,81.40
2019-01-13T15:35:48.839Z,81.40
2019-01-13T15:37:52.529Z,81.50
2019-01-13T15:39:56.434Z,81.50
2019-01-13T15:42:00.101Z,81.50
2019-01-13T15:44:03.033Z,81.30
2019-01-13T15:46:05.977Z,81.30
2019-01-13T15:48:08.898Z,81.40
2019-01-13T15:50:12.653Z,80.80
2019-01-13T15:52:15.597Z,81.40
2019-01-13T15:54:18.544Z,81.40
2019-01-13T15:56:22.225Z,81.40
2019-01-13T15:58:26.046Z,82.20
2019-01-13T16:00:29.869Z,81.30
2019-01-13T16:02:32.801Z,81.30
2019-01-13T16:04:35.762Z,81.30
2019-01-13T16:06:38.696Z,81.30
2019-01-13T16:08:42.380Z,81.20
2019-01-13T16:10:46.106Z,81.20
2019-01-13T16:12:49.053Z,81.10
2019-01-13T16:14:51.969Z,81.10
2019-01-13T16:16:54.914Z,81.00
2019-01-13T16:18:57.925Z,81.00
2019-01-13T16:21:01.592Z,80.90
2019-01-13T16:23:04.815Z,80.80
2019-01-13T16:25:08.493Z,80.80
2019-01-13T16:27:11.471Z,80.70
2019-01-13T16:29:16.016Z,80.70
2019-01-13T16:31:19.688Z,80.60
2019-01-13T16:33:23.415Z,81.50
2019-01-13T16:35:27.219Z,81.20
2019-01-13T16:37:30.890Z,80.60
2019-01-13T16:39:33.805Z,80.60
2019-01-13T16:41:36.750Z,80.50
2019-01-13T16:43:39.765Z,80.50
2019-01-13T16:45:44.283Z,81.20
2019-01-13T16:47:48.093Z,80.40
2019-01-13T16:49:51.004Z,80.40
2019-01-13T16:51:53.929Z,80.30
2019-01-13T16:53:56.866Z,80.30
2019-01-13T16:55:59.785Z,80.30
2019-01-13T16:58:02.714Z,80.30
2019-01-13T17:00:14.175Z,80.20
2019-01-13T17:02:18.566Z,80.20
2019-01-13T17:04:28.509Z,80.10
2019-01-13T17:06:24.969Z,80.10
2019-01-13T17:08:27.949Z,80.10
2019-01-13T17:10:31.621Z,80.00
2019-01-13T17:12:34.567Z,80.10
2019-01-13T17:14:37.477Z,80.00
2019-01-13T17:16:40.514Z,80.00
2019-01-13T17:18:43.852Z,80.00
2019-01-13T17:20:46.778Z,80.00
2019-01-13T17:22:50.445Z,80.00
2019-01-13T17:24:53.575Z,80.00
2019-01-13T17:26:56.485Z,79.90
2019-01-13T17:28:59.420Z,79.90
2019-01-13T17:31:02.371Z,79.90
2019-01-13T17:33:05.388Z,79.90
2019-01-13T17:35:08.321Z,79.80
2019-01-13T17:37:11.557Z,79.90
2019-01-13T17:39:15.233Z,79.90
2019-01-13T17:41:18.143Z,79.70
2019-01-13T17:43:21.864Z,79.80
2019-01-13T17:45:24.786Z,79.80
2019-01-13T17:47:27.804Z,79.70
2019-01-13T17:49:30.841Z,79.70
2019-01-13T17:51:33.749Z,79.60
2019-01-13T17:53:36.756Z,79.60
2019-01-13T17:55:40.470Z,79.60
2019-01-13T17:57:43.538Z,79.50
2019-01-13T17:59:47.240Z,79.40
2019-01-13T18:01:51.153Z,79.50
2019-01-13T18:03:54.853Z,79.40
2019-01-13T18:05:58.645Z,79.40
2019-01-13T18:08:02.345Z,79.40
2019-01-13T18:10:06.050Z,79.40
2019-01-13T18:12:09.721Z,79.40
2019-01-13T18:14:12.657Z,79.30
2019-01-13T18:16:15.561Z,79.30
2019-01-13T18:18:18.493Z,79.30
2019-01-13T18:20:22.398Z,79.30
2019-01-13T18:22:26.074Z,79.30
2019-01-13T18:24:29.081Z,79.20
2019-01-13T18:26:32.781Z,79.20
2019-01-13T18:28:36.496Z,79.20
2019-01-13T18:30:40.177Z,79.40
2019-01-13T18:32:44.000Z,79.40
2019-01-13T18:34:50.340Z,79.20
2019-01-13T18:36:49.944Z,79.30
2019-01-13T18:38:53.747Z,79.40
2019-01-13T18:40:57.417Z,79.40
2019-01-13T18:43:00.430Z,79.40
2019-01-13T18:45:04.232Z,79.40
2019-01-13T18:47:07.909Z,79.30
2019-01-13T18:49:10.902Z,79.30
2019-01-13T18:51:14.942Z,79.10
2019-01-13T18:53:17.845Z,79.10
2019-01-13T18:55:20.794Z,79.00
2019-01-13T18:57:24.507Z,78.80
2019-01-13T18:59:27.571Z,78.70
2019-01-13T19:01:31.291Z,78.50
2019-01-13T19:03:34.266Z,78.40
2019-01-13T19:05:37.929Z,78.30
2019-01-13T19:07:42.348Z,78.20
2019-01-13T19:09:45.314Z,78.20
2019-01-13T19:11:48.217Z,78.00
2019-01-13T19:13:57.949Z,78.00
2019-01-13T19:16:00.889Z,77.90
2019-01-13T19:18:03.805Z,77.80
2019-01-13T19:20:09.466Z,77.60
2019-01-13T19:22:12.879Z,77.60
2019-01-13T19:24:16.652Z,77.50
2019-01-13T19:26:19.664Z,77.50
2019-01-13T19:28:23.160Z,77.20
2019-01-13T19:30:26.119Z,77.10
2019-01-13T19:32:29.050Z,76.90
2019-01-13T19:34:31.984Z,76.90
2019-01-13T19:36:35.673Z,76.30
2019-01-13T19:38:38.592Z,76.20
2019-01-13T19:40:42.899Z,76.20
2019-01-13T19:42:46.583Z,76.10
2019-01-13T19:44:50.267Z,75.90
2019-01-13T19:46:53.297Z,75.80
2019-01-13T19:48:56.222Z,75.60
2019-01-13T19:50:59.138Z,75.60
2019-01-13T19:53:02.858Z,75.20
2019-01-13T19:55:05.778Z,75.00
2019-01-13T19:57:08.702Z,74.90
2019-01-13T19:59:12.512Z,75.10
2019-01-13T20:01:16.190Z,74.20
2019-01-13T20:03:19.194Z,74.20
2019-01-13T20:05:22.923Z,74.00
2019-01-13T20:07:25.826Z,73.90
2019-01-13T20:09:28.883Z,73.70
2019-01-13T20:11:31.831Z,73.50
2019-01-13T20:13:35.506Z,73.90
2019-01-13T20:15:38.527Z,73.20
2019-01-13T20:17:42.357Z,73.10
2019-01-13T20:19:45.286Z,73.00
2019-01-13T20:21:48.249Z,72.70
2019-01-13T20:23:51.792Z,72.40
2019-01-13T20:25:55.495Z,72.00
2019-01-13T20:27:59.178Z,71.60
2019-01-13T20:30:02.117Z,71.50
2019-01-13T20:32:05.026Z,71.60
2019-01-13T20:34:08.040Z,71.60
2019-01-13T20:36:11.326Z,71.70
2019-01-13T20:38:14.412Z,71.40
2019-01-13T20:40:18.078Z,71.30
2019-01-13T20:42:21.050Z,71.30
2019-01-13T20:44:23.994Z,70.60
2019-01-13T20:46:26.925Z,70.00
2019-01-13T20:48:29.865Z,70.10
2019-01-13T20:50:32.774Z,70.30
2019-01-13T20:52:35.707Z,70.30
2019-01-13T20:54:38.691Z,70.30
2019-01-13T20:56:42.370Z,70.10
2019-01-13T20:58:46.060Z,70.30
2019-01-13T21:00:49.025Z,69.60
2019-01-13T21:02:52.052Z,69.80
2019-01-13T21:04:55.735Z,69.60
2019-01-13T21:06:59.456Z,69.60
2019-01-13T21:09:03.140Z,69.90
2019-01-13T21:11:06.851Z,70.00
2019-01-13T21:13:10.653Z,69.90
2019-01-13T21:15:15.757Z,69.60
2019-01-13T21:17:18.833Z,69.60
2019-01-13T21:19:22.583Z,69.10
2019-01-13T21:21:25.506Z,69.00
2019-01-13T21:23:28.431Z,68.90
2019-01-13T21:25:32.342Z,68.20
2019-01-13T21:27:36.041Z,68.10
2019-01-13T21:29:39.716Z,68.30
2019-01-13T21:31:42.683Z,68.20
2019-01-13T21:33:45.810Z,67.90
2019-01-13T21:35:48.776Z,68.00
2019-01-13T21:37:52.198Z,68.10
2019-01-13T21:39:55.124Z,68.20
2019-01-13T21:41:58.038Z,68.20
2019-01-13T21:44:01.810Z,67.50
2019-01-13T21:46:04.737Z,67.40
2019-01-13T21:48:08.409Z,68.40
2019-01-13T21:50:13.987Z,68.40
2019-01-13T21:52:16.891Z,68.20
2019-01-13T21:54:19.802Z,68.20
2019-01-13T21:56:23.254Z,68.30
2019-01-13T21:58:26.177Z,68.50
2019-01-13T22:00:29.094Z,68.50
2019-01-13T22:02:32.825Z,68.60
2019-01-13T22:04:36.491Z,68.50
2019-01-13T22:06:39.594Z,69.20
2019-01-13T22:08:42.525Z,68.40
2019-01-13T22:10:45.442Z,68.30
2019-01-13T22:12:48.357Z,68.40
2019-01-13T22:14:51.287Z,68.40
2019-01-13T22:16:54.212Z,68.30
2019-01-13T22:18:57.125Z,68.40
2019-01-13T22:21:00.281Z,68.30
2019-01-13T22:23:04.029Z,68.40
2019-01-13T22:25:06.961Z,68.30
2019-01-13T22:27:10.025Z,68.40
2019-01-13T22:29:13.718Z,68.20
2019-01-13T22:31:22.680Z,68.30
2019-01-13T22:33:25.602Z,68.20
2019-01-13T22:35:28.542Z,68.00
2019-01-13T22:37:31.461Z,67.90
2019-01-13T22:39:34.683Z,68.00
2019-01-13T22:41:38.357Z,68.70
2019-01-13T22:43:42.809Z,68.00
2019-01-13T22:45:46.943Z,68.10
2019-01-13T22:47:49.868Z,68.00
2019-01-13T22:49:52.878Z,68.10
2019-01-13T22:51:56.580Z,68.10
2019-01-13T22:53:59.506Z,68.00
2019-01-13T22:56:03.185Z,68.00
2019-01-13T22:58:06.950Z,68.10
2019-01-13T23:00:32.093Z,68.20
2019-01-13T23:02:35.010Z,68.10
2019-01-13T23:04:38.024Z,67.90
2019-01-13T23:06:41.688Z,68.30
2019-01-13T23:08:44.670Z,68.20
2019-01-13T23:10:47.613Z,68.30
2019-01-13T23:12:50.524Z,68.40
2019-01-13T23:14:53.492Z,68.40
2019-01-13T23:16:56.945Z,68.30
2019-01-13T23:19:00.641Z,68.40
2019-01-13T23:21:04.322Z,68.40
2019-01-13T23:23:08.164Z,69.10
2019-01-13T23:25:11.079Z,68.50
2019-01-13T23:27:14.065Z,68.60
2019-01-13T23:29:17.505Z,68.70
2019-01-13T23:31:21.178Z,68.90
2019-01-13T23:33:25.603Z,69.00
2019-01-13T23:35:28.615Z,68.90
2019-01-13T23:37:31.541Z,68.90
2019-01-13T23:39:37.150Z,69.00
2019-01-13T23:41:40.318Z,69.00
2019-01-13T23:43:43.990Z,69.20
2019-01-13T23:45:47.003Z,69.10
2019-01-13T23:47:50.201Z,69.20
2019-01-13T23:49:53.238Z,69.20
2019-01-13T23:51:56.924Z,69.30
2019-01-13T23:54:00.993Z,69.40
2019-01-13T23:56:03.909Z,69.30
2019-01-13T23:58:06.826Z,69.40
